Jimna, Australia
Current Conditions -  °F | °C
As of 9:30 AM on Thursday 23 Oct 2014 (Local Time) from YBBN Reporting Station
Few Clouds Few Clouds  
Wind Chill: 72°   Ceiling: Unl
Heat Index: 72°   Visibility: 6mi
Dew Point: 52°   Wind: 8mph
Humidity: 50%   Direction: 10°N
Pressure: 30.18"   Gusts: NA
Location:  26.66°S, 152.46°E
Report Text: YBBN 222330Z 01007KT 9999 FEW041 22/11 Q1022
Loading
Personal Weather Stations






























Interactive Weather Map
Tropical Storm Tracking
New forecast layout! Learn more

10-Day Weather Forecast

Advertisements
Track Severe Weather on mobile